createdAt,value
2023-04-15T00:00:20.932Z,28.77
2023-04-15T00:05:48.363Z,25.30
2023-04-15T00:11:16.159Z,17.85
2023-04-15T00:16:43.219Z,17.98
2023-04-15T00:22:10.120Z,19.27
2023-04-15T00:27:37.684Z,18.45
2023-04-15T00:33:05.371Z,24.45
2023-04-15T00:38:33.746Z,19.50
2023-04-15T00:44:02.685Z,16.90
2023-04-15T00:49:31.024Z,16.15
2023-04-15T00:54:59.072Z,16.20
2023-04-15T01:00:27.034Z,17.52
2023-04-15T01:05:58.654Z,19.17
2023-04-15T01:11:27.443Z,19.35
2023-04-15T01:16:55.599Z,19.50
2023-04-15T01:22:24.159Z,19.92
2023-04-15T01:27:51.566Z,21.10
2023-04-15T01:33:19.288Z,15.55
2023-04-15T01:38:48.057Z,19.02
2023-04-15T01:44:15.394Z,22.40
2023-04-15T01:49:42.588Z,24.35
2023-04-15T01:55:10.992Z,25.65
2023-04-15T02:00:39.746Z,23.73
2023-04-15T02:06:07.708Z,29.40
2023-04-15T02:11:37.747Z,25.67
2023-04-15T02:17:09.638Z,28.60
2023-04-15T02:22:37.418Z,27.15
2023-04-15T02:28:07.760Z,31.65
2023-04-15T02:33:37.259Z,27.45
2023-04-15T02:39:04.567Z,30.63
2023-04-15T02:44:32.659Z,29.40
2023-04-15T02:50:06.144Z,30.55
2023-04-15T02:55:33.829Z,27.30
2023-04-15T03:01:01.721Z,32.22
2023-04-15T03:06:29.857Z,25.08
2023-04-15T03:11:57.786Z,29.85
2023-04-15T03:17:25.960Z,28.25
2023-04-15T03:22:53.856Z,29.25
2023-04-15T03:28:24.027Z,32.13
2023-04-15T03:33:52.673Z,33.20
2023-04-15T03:39:19.997Z,21.98
2023-04-15T03:44:47.932Z,29.52
2023-04-15T03:50:15.897Z,16.95
2023-04-15T03:55:43.297Z,6.07
2023-04-15T04:01:10.892Z,7.63
2023-04-15T04:06:38.312Z,4.43
2023-04-15T04:12:05.885Z,6.88
2023-04-15T04:17:33.171Z,7.70
2023-04-15T04:23:01.077Z,5.70
2023-04-15T04:28:29.100Z,6.53
2023-04-15T04:33:56.618Z,7.82
2023-04-15T04:39:24.070Z,4.97
2023-04-15T04:44:51.767Z,6.13
2023-04-15T04:50:18.855Z,6.80
2023-04-15T04:55:45.965Z,6.82
2023-04-15T05:01:13.439Z,4.63
2023-04-15T05:06:40.996Z,7.85
2023-04-15T05:12:09.258Z,6.38
2023-04-15T05:17:36.763Z,3.83
2023-04-15T05:23:03.851Z,4.63
2023-04-15T05:28:31.280Z,3.03
2023-04-15T05:33:59.183Z,4.13
2023-04-15T05:39:27.713Z,4.15
2023-04-15T05:44:56.009Z,3.20
2023-04-15T05:50:23.066Z,1.98
2023-04-15T05:55:50.329Z,1.90
2023-04-15T06:01:18.485Z,1.30
2023-04-15T06:06:46.493Z,1.27
2023-04-15T06:12:14.729Z,1.30
2023-04-15T06:17:42.574Z,2.15
2023-04-15T06:23:10.710Z,1.52
2023-04-15T06:28:38.118Z,1.35
2023-04-15T06:34:07.747Z,1.05
2023-04-15T06:39:35.311Z,1.42
2023-04-15T06:45:02.407Z,1.60
2023-04-15T06:50:31.610Z,1.17
2023-04-15T06:55:59.135Z,2.63
2023-04-15T07:01:26.911Z,1.65
2023-04-15T07:06:55.849Z,1.08
2023-04-15T07:12:23.666Z,1.00
2023-04-15T07:17:51.651Z,0.80
2023-04-15T07:23:19.495Z,2.20
2023-04-15T07:28:47.729Z,0.80
2023-04-15T07:34:15.547Z,0.40
2023-04-15T07:39:43.997Z,0.65
2023-04-15T07:45:11.783Z,1.20
2023-04-15T07:50:39.980Z,0.75
2023-04-15T07:56:07.678Z,0.60
2023-04-15T08:01:39.233Z,0.50
2023-04-15T08:07:07.360Z,0.65
2023-04-15T08:12:35.961Z,0.60
2023-04-15T08:18:03.726Z,0.40
2023-04-15T08:23:32.968Z,0.60
2023-04-15T08:29:00.869Z,0.52
2023-04-15T08:34:28.449Z,1.13
2023-04-15T08:39:57.112Z,0.88
2023-04-15T08:45:25.279Z,0.77
2023-04-15T08:50:53.171Z,0.73
2023-04-15T08:56:25.808Z,0.68
2023-04-15T09:01:55.657Z,0.50
2023-04-15T09:07:24.045Z,0.40
2023-04-15T09:12:51.620Z,0.43
2023-04-15T09:18:32.583Z,0.93
2023-04-15T09:24:02.715Z,0.73
2023-04-15T09:29:30.808Z,2.80
2023-04-15T09:34:58.305Z,0.52
2023-04-15T09:40:41.384Z,0.57
2023-04-15T09:46:08.750Z,0.77
2023-04-15T09:51:36.915Z,2.13
2023-04-15T09:57:11.513Z,0.38
2023-04-15T10:02:42.615Z,0.40
2023-04-15T10:08:10.153Z,0.38
2023-04-15T10:13:39.205Z,0.43
2023-04-15T10:19:08.970Z,0.45
2023-04-15T10:24:39.201Z,0.40
2023-04-15T10:30:07.269Z,0.32
2023-04-15T10:35:35.641Z,1.27
2023-04-15T10:41:31.442Z,1.48
2023-04-15T10:46:59.349Z,0.60
2023-04-15T10:52:29.398Z,0.40
2023-04-15T10:58:01.756Z,0.60
2023-04-15T11:03:39.923Z,2.85
2023-04-15T11:09:09.948Z,0.63
2023-04-15T11:14:43.719Z,0.70
2023-04-15T11:20:16.569Z,0.70
2023-04-15T11:25:44.479Z,0.80
2023-04-15T11:31:18.368Z,0.80
2023-04-15T11:36:46.067Z,1.10
2023-04-15T11:42:19.260Z,0.88
2023-04-15T11:47:46.999Z,1.05
2023-04-15T11:53:14.817Z,0.65
2023-04-15T11:58:43.665Z,0.50
2023-04-15T12:04:22.530Z,0.50
2023-04-15T12:09:57.360Z,0.57
2023-04-15T12:15:25.261Z,0.82
2023-04-15T12:20:52.331Z,0.90
2023-04-15T12:26:31.675Z,0.70
2023-04-15T12:32:10.596Z,0.63
2023-04-15T12:37:38.544Z,0.60
2023-04-15T12:43:06.460Z,0.95
2023-04-15T12:48:35.027Z,0.80
2023-04-15T12:54:02.769Z,0.75
2023-04-15T12:59:30.508Z,0.77
2023-04-15T13:04:58.387Z,0.80
2023-04-15T13:10:26.350Z,0.70
2023-04-15T13:15:54.458Z,0.60
2023-04-15T13:21:22.313Z,0.70
2023-04-15T13:26:50.513Z,0.73
2023-04-15T13:32:18.476Z,0.80
2023-04-15T13:37:45.213Z,0.80
2023-04-15T13:43:12.582Z,1.13
2023-04-15T13:48:40.917Z,0.90
2023-04-15T13:54:08.579Z,2.83
2023-04-15T13:59:36.903Z,0.85
2023-04-15T14:05:04.592Z,1.02
2023-04-15T14:10:32.695Z,1.30
2023-04-15T14:16:00.494Z,0.80
2023-04-15T14:21:28.467Z,0.93
2023-04-15T14:26:57.103Z,0.55
2023-04-15T14:32:26.781Z,1.15
2023-04-15T14:37:55.929Z,0.88
2023-04-15T15:33:53.916Z,0.73
2023-04-15T15:39:24.090Z,0.70
2023-04-15T15:44:53.119Z,0.80
2023-04-15T15:50:21.226Z,0.77
2023-04-15T15:55:48.948Z,3.80
2023-04-15T16:01:17.706Z,1.73
2023-04-15T16:06:47.655Z,2.10
2023-04-15T16:12:15.376Z,1.77
2023-04-15T16:17:42.558Z,2.10
2023-04-15T16:23:14.230Z,2.95
2023-04-15T16:28:42.958Z,2.70
2023-04-15T16:34:12.340Z,3.75
2023-04-15T16:39:40.045Z,1.88
2023-04-15T16:45:08.236Z,2.72
2023-04-15T16:50:37.413Z,5.95
2023-04-15T16:56:04.874Z,2.50
2023-04-15T17:01:31.871Z,2.67
2023-04-15T17:06:58.822Z,3.63
2023-04-15T17:12:25.877Z,3.13
2023-04-15T17:17:52.849Z,3.00
2023-04-15T17:23:19.857Z,10.95
2023-04-15T17:28:46.910Z,6.78
2023-04-15T17:34:15.895Z,5.28
2023-04-15T17:39:44.586Z,5.18
2023-04-15T17:45:12.257Z,4.10
2023-04-15T17:50:40.438Z,3.65
2023-04-15T17:56:08.103Z,5.63
2023-04-15T18:01:35.254Z,6.38
2023-04-15T18:07:06.231Z,5.10
2023-04-15T18:12:34.155Z,5.18
2023-04-15T18:18:01.473Z,11.80
2023-04-15T18:23:28.833Z,14.25
2023-04-15T18:28:56.047Z,14.07
2023-04-15T18:34:22.913Z,13.63
2023-04-15T18:39:55.332Z,15.30
2023-04-15T18:45:24.540Z,19.02
2023-04-15T18:50:54.799Z,19.35
2023-04-15T18:56:22.116Z,20.23
2023-04-15T19:01:49.167Z,19.83
2023-04-15T19:07:17.234Z,19.45
2023-04-15T19:12:43.897Z,22.55
2023-04-15T19:18:10.986Z,22.95
2023-04-15T19:23:38.687Z,26.60
2023-04-15T19:29:06.687Z,21.25
2023-04-15T19:34:34.099Z,24.70
2023-04-15T19:40:01.218Z,25.10
2023-04-15T19:45:29.061Z,22.02
2023-04-15T19:50:57.502Z,24.90
2023-04-15T19:56:25.455Z,27.10
2023-04-15T20:01:53.403Z,25.13
2023-04-15T20:07:20.628Z,24.35
2023-04-15T20:12:52.139Z,25.75
2023-04-15T20:18:20.314Z,26.55
2023-04-15T20:23:47.474Z,25.75
2023-04-15T20:29:15.050Z,25.90
2023-04-15T20:34:42.554Z,22.48
2023-04-15T20:40:11.720Z,26.50
2023-04-15T20:45:39.708Z,22.80
2023-04-15T20:51:07.557Z,24.65
2023-04-15T20:56:34.732Z,27.58
2023-04-15T21:02:02.940Z,26.00
2023-04-15T21:07:30.391Z,27.80
2023-04-15T21:12:57.420Z,24.02
2023-04-15T21:18:24.696Z,24.70
2023-04-15T21:23:51.242Z,26.00
2023-04-15T21:29:18.710Z,29.15
2023-04-15T21:34:45.560Z,25.38
2023-04-15T21:40:13.606Z,33.38
2023-04-15T21:45:43.240Z,34.83
2023-04-15T21:51:31.846Z,27.48
2023-04-15T21:56:59.526Z,30.15
2023-04-15T22:02:28.053Z,31.13
2023-04-15T22:07:58.423Z,26.40
2023-04-15T22:13:25.745Z,28.35
2023-04-15T22:18:52.882Z,30.98
2023-04-15T22:24:32.107Z,26.60
2023-04-15T22:30:07.503Z,29.83
2023-04-15T22:35:36.411Z,36.72
2023-04-15T22:41:03.751Z,37.45
2023-04-15T22:46:30.811Z,37.90
2023-04-15T22:51:57.627Z,36.10
2023-04-15T22:57:25.096Z,39.38
2023-04-15T23:02:53.224Z,37.67
2023-04-15T23:08:20.932Z,32.35
2023-04-15T23:13:48.171Z,31.55
2023-04-15T23:19:16.107Z,38.00
2023-04-15T23:24:45.130Z,34.88
2023-04-15T23:30:12.870Z,40.58
2023-04-15T23:35:40.340Z,39.28
2023-04-15T23:41:09.131Z,40.28
2023-04-15T23:46:37.077Z,34.60
2023-04-15T23:52:05.324Z,41.78
2023-04-15T23:57:33.125Z,41.42
